sensor_id;sensor_type;location;lat;lon;timestamp;pressure;altitude;pressure_sealevel;temperature
71564;BMP180;59391;52.504;13.438;2023-04-15T00:00:49;100165.00;;;12.90
71564;BMP180;59391;52.504;13.438;2023-04-15T00:03:16;100149.00;;;12.90
71564;BMP180;59391;52.504;13.438;2023-04-15T00:05:41;100156.00;;;12.90
71564;BMP180;59391;52.504;13.438;2023-04-15T00:08:07;100140.00;;;12.90
71564;BMP180;59391;52.504;13.438;2023-04-15T00:10:33;100152.00;;;12.90
71564;BMP180;59391;52.504;13.438;2023-04-15T00:12:59;100155.00;;;12.90
71564;BMP180;59391;52.504;13.438;2023-04-15T00:15:25;100157.00;;;12.90
71564;BMP180;59391;52.504;13.438;2023-04-15T00:17:51;100129.00;;;12.90
71564;BMP180;59391;52.504;13.438;2023-04-15T00:20:17;100157.00;;;12.90
71564;BMP180;59391;52.504;13.438;2023-04-15T00:22:43;100158.00;;;12.90
71564;BMP180;59391;52.504;13.438;2023-04-15T00:25:08;100156.00;;;12.90
71564;BMP180;59391;52.504;13.438;2023-04-15T00:27:34;100153.00;;;12.90
71564;BMP180;59391;52.504;13.438;2023-04-15T00:30:00;100148.00;;;12.90
71564;BMP180;59391;52.504;13.438;2023-04-15T00:32:26;100150.00;;;12.90
71564;BMP180;59391;52.504;13.438;2023-04-15T00:34:52;100143.00;;;12.90
71564;BMP180;59391;52.504;13.438;2023-04-15T00:37:17;100149.00;;;13.00
71564;BMP180;59391;52.504;13.438;2023-04-15T00:39:43;100128.00;;;13.00
71564;BMP180;59391;52.504;13.438;2023-04-15T00:42:09;100123.00;;;13.00
71564;BMP180;59391;52.504;13.438;2023-04-15T00:44:35;100143.00;;;13.00
71564;BMP180;59391;52.504;13.438;2023-04-15T00:47:02;100145.00;;;12.80
71564;BMP180;59391;52.504;13.438;2023-04-15T00:49:28;100144.00;;;13.00
71564;BMP180;59391;52.504;13.438;2023-04-15T00:51:54;100146.00;;;13.00
71564;BMP180;59391;52.504;13.438;2023-04-15T00:54:20;100140.00;;;13.00
71564;BMP180;59391;52.504;13.438;2023-04-15T00:56:46;100128.00;;;13.00
71564;BMP180;59391;52.504;13.438;2023-04-15T00:59:13;100133.00;;;13.00
71564;BMP180;59391;52.504;13.438;2023-04-15T01:01:40;100154.00;;;13.00
71564;BMP180;59391;52.504;13.438;2023-04-15T01:04:06;100138.00;;;13.00
71564;BMP180;59391;52.504;13.438;2023-04-15T01:06:32;100124.00;;;13.00
71564;BMP180;59391;52.504;13.438;2023-04-15T01:09:00;100133.00;;;13.00
71564;BMP180;59391;52.504;13.438;2023-04-15T01:11:26;100130.00;;;13.00
71564;BMP180;59391;52.504;13.438;2023-04-15T01:13:58;100134.00;;;13.00
71564;BMP180;59391;52.504;13.438;2023-04-15T01:16:24;100108.00;;;13.00
71564;BMP180;59391;52.504;13.438;2023-04-15T01:18:51;100123.00;;;13.00
71564;BMP180;59391;52.504;13.438;2023-04-15T01:21:18;100115.00;;;13.00
71564;BMP180;59391;52.504;13.438;2023-04-15T01:23:46;100130.00;;;13.00
71564;BMP180;59391;52.504;13.438;2023-04-15T01:26:13;100117.00;;;13.00
71564;BMP180;59391;52.504;13.438;2023-04-15T01:28:39;100128.00;;;13.00
71564;BMP180;59391;52.504;13.438;2023-04-15T01:31:13;100131.00;;;13.00
71564;BMP180;59391;52.504;13.438;2023-04-15T01:33:41;100127.00;;;13.00
71564;BMP180;59391;52.504;13.438;2023-04-15T01:36:11;100127.00;;;13.00
71564;BMP180;59391;52.504;13.438;2023-04-15T01:38:37;100105.00;;;13.00
71564;BMP180;59391;52.504;13.438;2023-04-15T01:41:03;100110.00;;;13.00
71564;BMP180;59391;52.504;13.438;2023-04-15T01:43:31;100129.00;;;13.00
71564;BMP180;59391;52.504;13.438;2023-04-15T01:45:56;100132.00;;;13.00
71564;BMP180;59391;52.504;13.438;2023-04-15T01:48:22;100126.00;;;13.00
71564;BMP180;59391;52.504;13.438;2023-04-15T01:50:48;100113.00;;;13.00
71564;BMP180;59391;52.504;13.438;2023-04-15T01:53:14;100111.00;;;13.00
71564;BMP180;59391;52.504;13.438;2023-04-15T01:55:40;100123.00;;;13.00
71564;BMP180;59391;52.504;13.438;2023-04-15T01:58:06;100117.00;;;13.00
71564;BMP180;59391;52.504;13.438;2023-04-15T02:00:32;100116.00;;;13.00
71564;BMP180;59391;52.504;13.438;2023-04-15T02:02:58;100121.00;;;13.00
71564;BMP180;59391;52.504;13.438;2023-04-15T02:05:24;100113.00;;;13.00
71564;BMP180;59391;52.504;13.438;2023-04-15T02:07:50;100112.00;;;13.00
71564;BMP180;59391;52.504;13.438;2023-04-15T02:10:16;100108.00;;;13.00
71564;BMP180;59391;52.504;13.438;2023-04-15T02:12:42;100117.00;;;13.00
71564;BMP180;59391;52.504;13.438;2023-04-15T02:15:08;100104.00;;;13.00
71564;BMP180;59391;52.504;13.438;2023-04-15T02:17:38;100110.00;;;13.00
71564;BMP180;59391;52.504;13.438;2023-04-15T02:20:04;100113.00;;;13.00
71564;BMP180;59391;52.504;13.438;2023-04-15T02:22:33;100107.00;;;13.00
71564;BMP180;59391;52.504;13.438;2023-04-15T02:24:59;100114.00;;;13.00
71564;BMP180;59391;52.504;13.438;2023-04-15T02:27:24;100109.00;;;13.00
71564;BMP180;59391;52.504;13.438;2023-04-15T02:29:50;100110.00;;;13.00
71564;BMP180;59391;52.504;13.438;2023-04-15T02:32:16;100106.00;;;13.00
71564;BMP180;59391;52.504;13.438;2023-04-15T02:34:42;100103.00;;;13.00
71564;BMP180;59391;52.504;13.438;2023-04-15T02:37:10;100114.00;;;13.00
71564;BMP180;59391;52.504;13.438;2023-04-15T02:39:36;100115.00;;;13.00
71564;BMP180;59391;52.504;13.438;2023-04-15T02:42:02;100100.00;;;13.00
71564;BMP180;59391;52.504;13.438;2023-04-15T02:44:29;100105.00;;;13.00
71564;BMP180;59391;52.504;13.438;2023-04-15T02:46:56;100116.00;;;13.00
71564;BMP180;59391;52.504;13.438;2023-04-15T02:49:23;100113.00;;;13.00
71564;BMP180;59391;52.504;13.438;2023-04-15T02:51:49;100112.00;;;13.00
71564;BMP180;59391;52.504;13.438;2023-04-15T02:54:19;100122.00;;;13.00
71564;BMP180;59391;52.504;13.438;2023-04-15T02:56:47;100116.00;;;13.00
71564;BMP180;59391;52.504;13.438;2023-04-15T02:59:13;100122.00;;;13.00
71564;BMP180;59391;52.504;13.438;2023-04-15T03:01:38;100112.00;;;13.00
71564;BMP180;59391;52.504;13.438;2023-04-15T03:04:04;100113.00;;;13.00
71564;BMP180;59391;52.504;13.438;2023-04-15T03:06:30;100112.00;;;13.00
71564;BMP180;59391;52.504;13.438;2023-04-15T03:08:56;100115.00;;;13.00
71564;BMP180;59391;52.504;13.438;2023-04-15T03:11:21;100123.00;;;13.10
71564;BMP180;59391;52.504;13.438;2023-04-15T03:13:47;100122.00;;;13.10
71564;BMP180;59391;52.504;13.438;2023-04-15T03:16:13;100107.00;;;13.10
71564;BMP180;59391;52.504;13.438;2023-04-15T03:18:39;100125.00;;;13.10
71564;BMP180;59391;52.504;13.438;2023-04-15T03:21:04;100126.00;;;13.10
71564;BMP180;59391;52.504;13.438;2023-04-15T03:23:31;100118.00;;;13.10
71564;BMP180;59391;52.504;13.438;2023-04-15T03:25:56;100124.00;;;13.10
71564;BMP180;59391;52.504;13.438;2023-04-15T03:28:23;100130.00;;;13.10
71564;BMP180;59391;52.504;13.438;2023-04-15T03:30:49;100130.00;;;13.20
71564;BMP180;59391;52.504;13.438;2023-04-15T03:33:14;100129.00;;;13.20
71564;BMP180;59391;52.504;13.438;2023-04-15T03:35:40;100133.00;;;13.20
71564;BMP180;59391;52.504;13.438;2023-04-15T03:38:06;100126.00;;;13.20
71564;BMP180;59391;52.504;13.438;2023-04-15T03:40:31;100130.00;;;13.20
71564;BMP180;59391;52.504;13.438;2023-04-15T03:42:57;100117.00;;;13.20
71564;BMP180;59391;52.504;13.438;2023-04-15T03:45:23;100115.00;;;13.20
71564;BMP180;59391;52.504;13.438;2023-04-15T03:47:48;100116.00;;;13.20
71564;BMP180;59391;52.504;13.438;2023-04-15T03:50:14;100116.00;;;13.20
71564;BMP180;59391;52.504;13.438;2023-04-15T03:52:40;100114.00;;;13.30
71564;BMP180;59391;52.504;13.438;2023-04-15T03:55:06;100122.00;;;13.30
71564;BMP180;59391;52.504;13.438;2023-04-15T03:57:33;100133.00;;;13.30
71564;BMP180;59391;52.504;13.438;2023-04-15T04:00:04;100120.00;;;13.30
71564;BMP180;59391;52.504;13.438;2023-04-15T04:02:29;100122.00;;;13.30
71564;BMP180;59391;52.504;13.438;2023-04-15T04:04:55;100128.00;;;13.30
71564;BMP180;59391;52.504;13.438;2023-04-15T04:07:23;100115.00;;;13.30
71564;BMP180;59391;52.504;13.438;2023-04-15T04:09:49;100126.00;;;13.30
71564;BMP180;59391;52.504;13.438;2023-04-15T04:12:15;100129.00;;;13.30
71564;BMP180;59391;52.504;13.438;2023-04-15T04:14:40;100136.00;;;13.40
71564;BMP180;59391;52.504;13.438;2023-04-15T04:17:07;100129.00;;;13.40
71564;BMP180;59391;52.504;13.438;2023-04-15T04:19:32;100135.00;;;13.40
71564;BMP180;59391;52.504;13.438;2023-04-15T04:21:58;100126.00;;;13.40
71564;BMP180;59391;52.504;13.438;2023-04-15T04:24:24;100133.00;;;13.40
71564;BMP180;59391;52.504;13.438;2023-04-15T04:26:50;100142.00;;;13.40
71564;BMP180;59391;52.504;13.438;2023-04-15T04:29:15;100141.00;;;13.40
71564;BMP180;59391;52.504;13.438;2023-04-15T04:31:41;100137.00;;;13.40
71564;BMP180;59391;52.504;13.438;2023-04-15T04:34:07;100147.00;;;13.50
71564;BMP180;59391;52.504;13.438;2023-04-15T04:36:32;100139.00;;;13.50
71564;BMP180;59391;52.504;13.438;2023-04-15T04:38:58;100137.00;;;13.50
71564;BMP180;59391;52.504;13.438;2023-04-15T04:41:24;100133.00;;;13.50
71564;BMP180;59391;52.504;13.438;2023-04-15T04:43:49;100142.00;;;13.50
71564;BMP180;59391;52.504;13.438;2023-04-15T04:46:15;100147.00;;;13.50
71564;BMP180;59391;52.504;13.438;2023-04-15T04:48:41;100131.00;;;13.50
71564;BMP180;59391;52.504;13.438;2023-04-15T04:51:07;100137.00;;;13.60
71564;BMP180;59391;52.504;13.438;2023-04-15T04:53:32;100158.00;;;13.60
71564;BMP180;59391;52.504;13.438;2023-04-15T04:55:58;100148.00;;;13.60
71564;BMP180;59391;52.504;13.438;2023-04-15T04:58:24;100149.00;;;13.60
71564;BMP180;59391;52.504;13.438;2023-04-15T05:00:49;100154.00;;;13.60
71564;BMP180;59391;52.504;13.438;2023-04-15T05:03:15;100144.00;;;13.70
71564;BMP180;59391;52.504;13.438;2023-04-15T05:05:41;100140.00;;;13.70
71564;BMP180;59391;52.504;13.438;2023-04-15T05:08:06;100166.00;;;13.70
71564;BMP180;59391;52.504;13.438;2023-04-15T05:10:32;100159.00;;;13.70
71564;BMP180;59391;52.504;13.438;2023-04-15T05:12:58;100164.00;;;13.70
71564;BMP180;59391;52.504;13.438;2023-04-15T05:15:23;100152.00;;;13.80
71564;BMP180;59391;52.504;13.438;2023-04-15T05:17:49;100164.00;;;13.80
71564;BMP180;59391;52.504;13.438;2023-04-15T05:20:15;100165.00;;;13.80
71564;BMP180;59391;52.504;13.438;2023-04-15T05:22:41;100165.00;;;13.80
71564;BMP180;59391;52.504;13.438;2023-04-15T05:25:07;100166.00;;;13.80
71564;BMP180;59391;52.504;13.438;2023-04-15T05:27:33;100166.00;;;13.90
71564;BMP180;59391;52.504;13.438;2023-04-15T05:29:59;100168.00;;;13.90
71564;BMP180;59391;52.504;13.438;2023-04-15T05:32:24;100176.00;;;13.90
71564;BMP180;59391;52.504;13.438;2023-04-15T05:34:50;100176.00;;;13.90
71564;BMP180;59391;52.504;13.438;2023-04-15T05:37:16;100181.00;;;13.90
71564;BMP180;59391;52.504;13.438;2023-04-15T05:39:42;100167.00;;;14.00
71564;BMP180;59391;52.504;13.438;2023-04-15T05:42:07;100165.00;;;14.00
71564;BMP180;59391;52.504;13.438;2023-04-15T05:44:33;100175.00;;;14.00
71564;BMP180;59391;52.504;13.438;2023-04-15T05:46:59;100178.00;;;14.10
71564;BMP180;59391;52.504;13.438;2023-04-15T05:49:25;100165.00;;;14.10
71564;BMP180;59391;52.504;13.438;2023-04-15T05:51:50;100163.00;;;14.10
71564;BMP180;59391;52.504;13.438;2023-04-15T05:54:16;100167.00;;;14.20
71564;BMP180;59391;52.504;13.438;2023-04-15T05:56:43;100167.00;;;14.20
71564;BMP180;59391;52.504;13.438;2023-04-15T05:59:08;100168.00;;;14.30
71564;BMP180;59391;52.504;13.438;2023-04-15T06:01:34;100177.00;;;14.30
71564;BMP180;59391;52.504;13.438;2023-04-15T06:03:59;100172.00;;;14.30
71564;BMP180;59391;52.504;13.438;2023-04-15T06:06:26;100171.00;;;14.40
71564;BMP180;59391;52.504;13.438;2023-04-15T06:08:52;100177.00;;;14.40
71564;BMP180;59391;52.504;13.438;2023-04-15T06:11:19;100177.00;;;14.50
71564;BMP180;59391;52.504;13.438;2023-04-15T06:13:45;100182.00;;;14.50
71564;BMP180;59391;52.504;13.438;2023-04-15T06:16:11;100174.00;;;14.50
71564;BMP180;59391;52.504;13.438;2023-04-15T06:18:36;100177.00;;;14.60
71564;BMP180;59391;52.504;13.438;2023-04-15T06:21:02;100179.00;;;14.60
71564;BMP180;59391;52.504;13.438;2023-04-15T06:23:28;100169.00;;;14.70
71564;BMP180;59391;52.504;13.438;2023-04-15T06:25:54;100180.00;;;14.70
71564;BMP180;59391;52.504;13.438;2023-04-15T06:28:20;100172.00;;;14.70
71564;BMP180;59391;52.504;13.438;2023-04-15T06:30:45;100181.00;;;14.80
71564;BMP180;59391;52.504;13.438;2023-04-15T06:33:11;100182.00;;;14.80
71564;BMP180;59391;52.504;13.438;2023-04-15T06:35:37;100179.00;;;14.90
71564;BMP180;59391;52.504;13.438;2023-04-15T06:38:03;100174.00;;;14.90
71564;BMP180;59391;52.504;13.438;2023-04-15T06:40:29;100186.00;;;15.00
71564;BMP180;59391;52.504;13.438;2023-04-15T06:42:55;100197.00;;;15.00
71564;BMP180;59391;52.504;13.438;2023-04-15T06:45:21;100197.00;;;15.10
71564;BMP180;59391;52.504;13.438;2023-04-15T06:47:47;100198.00;;;15.10
71564;BMP180;59391;52.504;13.438;2023-04-15T06:50:12;100199.00;;;15.20
71564;BMP180;59391;52.504;13.438;2023-04-15T06:52:38;100202.00;;;15.20
71564;BMP180;59391;52.504;13.438;2023-04-15T06:55:04;100207.00;;;15.30
71564;BMP180;59391;52.504;13.438;2023-04-15T06:57:31;100208.00;;;15.40
71564;BMP180;59391;52.504;13.438;2023-04-15T06:59:56;100218.00;;;15.50
71564;BMP180;59391;52.504;13.438;2023-04-15T07:02:22;100212.00;;;15.60
71564;BMP180;59391;52.504;13.438;2023-04-15T07:04:48;100217.00;;;15.60
71564;BMP180;59391;52.504;13.438;2023-04-15T07:07:13;100217.00;;;15.70
71564;BMP180;59391;52.504;13.438;2023-04-15T07:09:40;100209.00;;;15.70
71564;BMP180;59391;52.504;13.438;2023-04-15T07:12:06;100232.00;;;15.70
71564;BMP180;59391;52.504;13.438;2023-04-15T07:14:31;100230.00;;;15.80
71564;BMP180;59391;52.504;13.438;2023-04-15T07:16:57;100234.00;;;15.80
71564;BMP180;59391;52.504;13.438;2023-04-15T07:19:22;100231.00;;;15.80
71564;BMP180;59391;52.504;13.438;2023-04-15T07:21:48;100235.00;;;15.80
71564;BMP180;59391;52.504;13.438;2023-04-15T07:24:14;100237.00;;;15.80
71564;BMP180;59391;52.504;13.438;2023-04-15T07:26:43;100236.00;;;15.80
71564;BMP180;59391;52.504;13.438;2023-04-15T07:29:09;100246.00;;;15.90
71564;BMP180;59391;52.504;13.438;2023-04-15T07:31:35;100247.00;;;15.80
71564;BMP180;59391;52.504;13.438;2023-04-15T07:34:02;100233.00;;;15.80
71564;BMP180;59391;52.504;13.438;2023-04-15T07:36:28;100239.00;;;15.80
71564;BMP180;59391;52.504;13.438;2023-04-15T07:38:54;100247.00;;;15.70
71564;BMP180;59391;52.504;13.438;2023-04-15T07:41:20;100255.00;;;15.70
71564;BMP180;59391;52.504;13.438;2023-04-15T07:43:46;100244.00;;;15.60
71564;BMP180;59391;52.504;13.438;2023-04-15T07:46:13;100254.00;;;15.50
71564;BMP180;59391;52.504;13.438;2023-04-15T07:48:39;100255.00;;;15.50
71564;BMP180;59391;52.504;13.438;2023-04-15T07:51:05;100252.00;;;15.50
71564;BMP180;59391;52.504;13.438;2023-04-15T07:53:31;100245.00;;;15.40
71564;BMP180;59391;52.504;13.438;2023-04-15T07:55:57;100260.00;;;15.40
71564;BMP180;59391;52.504;13.438;2023-04-15T07:58:23;100264.00;;;15.40
71564;BMP180;59391;52.504;13.438;2023-04-15T08:00:49;100260.00;;;15.40
71564;BMP180;59391;52.504;13.438;2023-04-15T08:03:15;100251.00;;;15.40
71564;BMP180;59391;52.504;13.438;2023-04-15T08:05:41;100257.00;;;15.40
71564;BMP180;59391;52.504;13.438;2023-04-15T08:08:07;100248.00;;;15.40
71564;BMP180;59391;52.504;13.438;2023-04-15T08:10:33;100265.00;;;15.40
71564;BMP180;59391;52.504;13.438;2023-04-15T08:12:59;100263.00;;;15.40
71564;BMP180;59391;52.504;13.438;2023-04-15T08:15:25;100271.00;;;15.40
71564;BMP180;59391;52.504;13.438;2023-04-15T08:17:51;100267.00;;;15.30
71564;BMP180;59391;52.504;13.438;2023-04-15T08:20:17;100269.00;;;15.30
71564;BMP180;59391;52.504;13.438;2023-04-15T08:22:44;100265.00;;;15.30
71564;BMP180;59391;52.504;13.438;2023-04-15T08:25:10;100274.00;;;15.20
71564;BMP180;59391;52.504;13.438;2023-04-15T08:27:36;100277.00;;;15.20
71564;BMP180;59391;52.504;13.438;2023-04-15T08:30:02;100263.00;;;15.20
71564;BMP180;59391;52.504;13.438;2023-04-15T08:32:28;100270.00;;;15.20
71564;BMP180;59391;52.504;13.438;2023-04-15T08:34:53;100279.00;;;15.20
71564;BMP180;59391;52.504;13.438;2023-04-15T08:37:19;100278.00;;;15.20
71564;BMP180;59391;52.504;13.438;2023-04-15T08:39:45;100288.00;;;15.20
71564;BMP180;59391;52.504;13.438;2023-04-15T08:42:16;100284.00;;;15.10
71564;BMP180;59391;52.504;13.438;2023-04-15T08:44:43;100280.00;;;15.20
71564;BMP180;59391;52.504;13.438;2023-04-15T08:47:12;100287.00;;;15.20
71564;BMP180;59391;52.504;13.438;2023-04-15T08:49:41;100288.00;;;15.20
71564;BMP180;59391;52.504;13.438;2023-04-15T08:52:08;100285.00;;;15.20
71564;BMP180;59391;52.504;13.438;2023-04-15T08:54:34;100293.00;;;15.20
71564;BMP180;59391;52.504;13.438;2023-04-15T08:57:00;100289.00;;;15.10
71564;BMP180;59391;52.504;13.438;2023-04-15T08:59:31;100297.00;;;15.10
71564;BMP180;59391;52.504;13.438;2023-04-15T09:01:57;100298.00;;;15.10
71564;BMP180;59391;52.504;13.438;2023-04-15T09:04:23;100284.00;;;15.10
71564;BMP180;59391;52.504;13.438;2023-04-15T09:06:48;100291.00;;;15.10
71564;BMP180;59391;52.504;13.438;2023-04-15T09:09:14;100285.00;;;15.20
71564;BMP180;59391;52.504;13.438;2023-04-15T09:11:40;100293.00;;;15.20
71564;BMP180;59391;52.504;13.438;2023-04-15T09:14:07;100292.00;;;15.20
71564;BMP180;59391;52.504;13.438;2023-04-15T09:16:57;100292.00;;;15.30
71564;BMP180;59391;52.504;13.438;2023-04-15T09:19:24;100298.00;;;15.30
71564;BMP180;59391;52.504;13.438;2023-04-15T09:21:53;100302.00;;;15.30
71564;BMP180;59391;52.504;13.438;2023-04-15T09:24:19;100304.00;;;15.30
71564;BMP180;59391;52.504;13.438;2023-04-15T09:26:44;100306.00;;;15.30
71564;BMP180;59391;52.504;13.438;2023-04-15T09:29:11;100313.00;;;15.30
71564;BMP180;59391;52.504;13.438;2023-04-15T09:31:40;100305.00;;;15.30
71564;BMP180;59391;52.504;13.438;2023-04-15T09:34:06;100320.00;;;15.30
71564;BMP180;59391;52.504;13.438;2023-04-15T09:39:16;100311.00;;;15.40
71564;BMP180;59391;52.504;13.438;2023-04-15T09:41:41;100316.00;;;15.40
71564;BMP180;59391;52.504;13.438;2023-04-15T09:44:22;100320.00;;;15.40
71564;BMP180;59391;52.504;13.438;2023-04-15T09:46:48;100326.00;;;15.40
71564;BMP180;59391;52.504;13.438;2023-04-15T09:49:14;100324.00;;;15.40
71564;BMP180;59391;52.504;13.438;2023-04-15T09:51:40;100332.00;;;15.40
71564;BMP180;59391;52.504;13.438;2023-04-15T09:54:06;100322.00;;;15.40
71564;BMP180;59391;52.504;13.438;2023-04-15T09:56:38;100331.00;;;15.30
71564;BMP180;59391;52.504;13.438;2023-04-15T09:59:06;100343.00;;;15.30
71564;BMP180;59391;52.504;13.438;2023-04-15T10:01:33;100335.00;;;15.30
71564;BMP180;59391;52.504;13.438;2023-04-15T10:04:03;100337.00;;;15.30
71564;BMP180;59391;52.504;13.438;2023-04-15T10:06:30;100339.00;;;15.30
71564;BMP180;59391;52.504;13.438;2023-04-15T10:08:57;100338.00;;;15.30
71564;BMP180;59391;52.504;13.438;2023-04-15T10:11:25;100349.00;;;15.30
71564;BMP180;59391;52.504;13.438;2023-04-15T10:13:53;100345.00;;;15.20
71564;BMP180;59391;52.504;13.438;2023-04-15T10:16:19;100351.00;;;15.20
71564;BMP180;59391;52.504;13.438;2023-04-15T10:18:55;100348.00;;;15.20
71564;BMP180;59391;52.504;13.438;2023-04-15T10:21:21;100351.00;;;15.20
71564;BMP180;59391;52.504;13.438;2023-04-15T10:23:48;100352.00;;;15.20
71564;BMP180;59391;52.504;13.438;2023-04-15T10:26:15;100353.00;;;15.20
71564;BMP180;59391;52.504;13.438;2023-04-15T10:28:45;100363.00;;;15.20
71564;BMP180;59391;52.504;13.438;2023-04-15T10:31:18;100342.00;;;15.20
71564;BMP180;59391;52.504;13.438;2023-04-15T10:33:45;100342.00;;;15.20
71564;BMP180;59391;52.504;13.438;2023-04-15T10:36:12;100356.00;;;15.20
71564;BMP180;59391;52.504;13.438;2023-04-15T10:38:43;100354.00;;;15.30
71564;BMP180;59391;52.504;13.438;2023-04-15T10:41:14;100363.00;;;15.30
71564;BMP180;59391;52.504;13.438;2023-04-15T10:44:01;100357.00;;;15.30
71564;BMP180;59391;52.504;13.438;2023-04-15T10:46:44;100365.00;;;15.40
71564;BMP180;59391;52.504;13.438;2023-04-15T10:49:23;100368.00;;;15.40
71564;BMP180;59391;52.504;13.438;2023-04-15T10:51:57;100366.00;;;15.40
71564;BMP180;59391;52.504;13.438;2023-04-15T10:57:23;100364.00;;;15.40
71564;BMP180;59391;52.504;13.438;2023-04-15T10:59:58;100363.00;;;15.40
71564;BMP180;59391;52.504;13.438;2023-04-15T11:02:44;100374.00;;;15.40
71564;BMP180;59391;52.504;13.438;2023-04-15T11:05:12;100376.00;;;15.40
71564;BMP180;59391;52.504;13.438;2023-04-15T11:07:40;100375.00;;;15.40
71564;BMP180;59391;52.504;13.438;2023-04-15T11:13:04;100385.00;;;15.30
71564;BMP180;59391;52.504;13.438;2023-04-15T11:15:42;100379.00;;;15.30
71564;BMP180;59391;52.504;13.438;2023-04-15T11:20:43;100394.00;;;15.30
71564;BMP180;59391;52.504;13.438;2023-04-15T11:23:18;100384.00;;;15.30
71564;BMP180;59391;52.504;13.438;2023-04-15T11:25:45;100368.00;;;15.30
71564;BMP180;59391;52.504;13.438;2023-04-15T11:28:11;100402.00;;;15.30
71564;BMP180;59391;52.504;13.438;2023-04-15T11:30:38;100398.00;;;15.30
71564;BMP180;59391;52.504;13.438;2023-04-15T11:33:07;100394.00;;;15.30
71564;BMP180;59391;52.504;13.438;2023-04-15T11:35:34;100393.00;;;15.30
71564;BMP180;59391;52.504;13.438;2023-04-15T11:38:04;100396.00;;;15.30
71564;BMP180;59391;52.504;13.438;2023-04-15T11:40:33;100406.00;;;15.30
71564;BMP180;59391;52.504;13.438;2023-04-15T11:43:17;100403.00;;;15.30
71564;BMP180;59391;52.504;13.438;2023-04-15T11:45:57;100414.00;;;15.30
71564;BMP180;59391;52.504;13.438;2023-04-15T11:48:27;100418.00;;;15.30
71564;BMP180;59391;52.504;13.438;2023-04-15T11:51:06;100412.00;;;15.30
71564;BMP180;59391;52.504;13.438;2023-04-15T11:53:46;100423.00;;;15.30
71564;BMP180;59391;52.504;13.438;2023-04-15T11:56:24;100422.00;;;15.40
71564;BMP180;59391;52.504;13.438;2023-04-15T11:58:56;100430.00;;;15.40
71564;BMP180;59391;52.504;13.438;2023-04-15T12:01:37;100421.00;;;15.30
71564;BMP180;59391;52.504;13.438;2023-04-15T12:04:17;100421.00;;;15.30
71564;BMP180;59391;52.504;13.438;2023-04-15T12:06:47;100427.00;;;15.30
71564;BMP180;59391;52.504;13.438;2023-04-15T12:09:16;100428.00;;;15.30
71564;BMP180;59391;52.504;13.438;2023-04-15T12:11:56;100428.00;;;15.30
71564;BMP180;59391;52.504;13.438;2023-04-15T12:14:27;100433.00;;;15.40
71564;BMP180;59391;52.504;13.438;2023-04-15T12:16:57;100436.00;;;15.40
71564;BMP180;59391;52.504;13.438;2023-04-15T12:22:17;100447.00;;;15.40
71564;BMP180;59391;52.504;13.438;2023-04-15T12:24:43;100445.00;;;15.40
71564;BMP180;59391;52.504;13.438;2023-04-15T12:27:15;100444.00;;;15.50
71564;BMP180;59391;52.504;13.438;2023-04-15T12:29:42;100430.00;;;15.50
71564;BMP180;59391;52.504;13.438;2023-04-15T12:32:13;100444.00;;;15.60
71564;BMP180;59391;52.504;13.438;2023-04-15T12:34:43;100451.00;;;15.70
71564;BMP180;59391;52.504;13.438;2023-04-15T12:37:11;100450.00;;;15.70
71564;BMP180;59391;52.504;13.438;2023-04-15T12:39:43;100468.00;;;15.70
71564;BMP180;59391;52.504;13.438;2023-04-15T12:42:09;100459.00;;;15.80
71564;BMP180;59391;52.504;13.438;2023-04-15T12:44:36;100457.00;;;15.80
71564;BMP180;59391;52.504;13.438;2023-04-15T12:47:03;100453.00;;;15.90
71564;BMP180;59391;52.504;13.438;2023-04-15T12:49:30;100474.00;;;15.90
71564;BMP180;59391;52.504;13.438;2023-04-15T12:51:58;100467.00;;;15.90
71564;BMP180;59391;52.504;13.438;2023-04-15T12:54:26;100463.00;;;16.00
71564;BMP180;59391;52.504;13.438;2023-04-15T12:56:53;100464.00;;;16.00
71564;BMP180;59391;52.504;13.438;2023-04-15T12:59:20;100463.00;;;16.00
71564;BMP180;59391;52.504;13.438;2023-04-15T13:01:47;100476.00;;;16.00
71564;BMP180;59391;52.504;13.438;2023-04-15T13:04:16;100468.00;;;16.00
71564;BMP180;59391;52.504;13.438;2023-04-15T13:06:42;100482.00;;;16.10
71564;BMP180;59391;52.504;13.438;2023-04-15T13:09:08;100476.00;;;16.10
71564;BMP180;59391;52.504;13.438;2023-04-15T13:11:34;100475.00;;;16.10
71564;BMP180;59391;52.504;13.438;2023-04-15T13:14:03;100488.00;;;16.10
71564;BMP180;59391;52.504;13.438;2023-04-15T13:16:29;100490.00;;;16.10
71564;BMP180;59391;52.504;13.438;2023-04-15T13:18:57;100486.00;;;16.00
71564;BMP180;59391;52.504;13.438;2023-04-15T13:21:23;100482.00;;;16.00
71564;BMP180;59391;52.504;13.438;2023-04-15T13:23:49;100477.00;;;16.00
71564;BMP180;59391;52.504;13.438;2023-04-15T13:26:16;100490.00;;;16.00
71564;BMP180;59391;52.504;13.438;2023-04-15T13:28:42;100491.00;;;15.90
71564;BMP180;59391;52.504;13.438;2023-04-15T13:31:07;100483.00;;;15.90
71564;BMP180;59391;52.504;13.438;2023-04-15T13:33:33;100488.00;;;15.90
71564;BMP180;59391;52.504;13.438;2023-04-15T13:35:59;100499.00;;;16.00
71564;BMP180;59391;52.504;13.438;2023-04-15T13:38:24;100494.00;;;16.00
71564;BMP180;59391;52.504;13.438;2023-04-15T13:40:50;100496.00;;;16.10
71564;BMP180;59391;52.504;13.438;2023-04-15T13:43:16;100498.00;;;16.10
71564;BMP180;59391;52.504;13.438;2023-04-15T13:45:42;100501.00;;;16.10
71564;BMP180;59391;52.504;13.438;2023-04-15T13:48:08;100503.00;;;16.10
71564;BMP180;59391;52.504;13.438;2023-04-15T13:50:34;100508.00;;;16.10
71564;BMP180;59391;52.504;13.438;2023-04-15T13:52:59;100515.00;;;16.00
71564;BMP180;59391;52.504;13.438;2023-04-15T13:55:25;100507.00;;;16.00
71564;BMP180;59391;52.504;13.438;2023-04-15T13:57:51;100509.00;;;16.00